Station Historical Data
Daily Summary for April 17, 2017 Units:  English    Metric   Both
« Previous Day
Next Day »
Daily Weekly Monthly Yearly Custom
  High: Low: Average:
Temperature: 57.9 °F 39.9 °F 50.4 °F
Dew Point: 45.3 °F 32.0 °F 40.2 °F
Humidity: 89% 52% 69%
Wind Speed: 15.0mph 0.0mph 4mph
Wind Gust: 19.0mph - -
Wind- - SW
Pressure: 30.29 in 29.91 in -
Precipitation: 0.00 in    
Historical Graphs
 
 
Tabular Data for April 17, 2017
Time Temperature Dew Point Pressure Wind Wind Speed Wind Gust Humidity Rainfall Rate (Hourly)
00:04 48.2 °F 44.5 °F 29.92 in SW 3.0 mph 7.0 mph 87% 0.00 in
00:09 48.1 °F 44.4 °F 29.92 in SSW 2.0 mph 3.0 mph 87% 0.00 in
00:14 47.8 °F 44.1 °F 29.91 in SSW 2.0 mph 3.0 mph 87% 0.00 in
00:19 47.7 °F 44.3 °F 29.92 in SSW 2.0 mph 4.0 mph 88% 0.00 in
00:24 47.7 °F 44.3 °F 29.92 in SSW 2.0 mph 4.0 mph 88% 0.00 in
00:29 47.7 °F 44.3 °F 29.93 in WSW 1.0 mph 3.0 mph 88% 0.00 in
00:34 47.8 °F 44.4 °F 29.92 in Calm   3.0 mph 88% 0.00 in
00:39 47.8 °F 44.4 °F 29.93 in Calm   1.0 mph 88% 0.00 in
00:44 48.0 °F 44.9 °F 29.93 in Calm   1.0 mph 89% 0.00 in
00:49 48.1 °F 45.0 °F 29.93 in Calm     89% 0.00 in
00:54 48.1 °F 45.0 °F 29.93 in Calm   2.0 mph 89% 0.00 in
00:59 48.1 °F 45.0 °F 29.94 in Calm   3.0 mph 89% 0.00 in
01:04 48.2 °F 45.1 °F 29.94 in SW 2.0 mph 4.0 mph 89% 0.00 in
01:09 48.2 °F 45.1 °F 29.94 in SW 1.0 mph 4.0 mph 89% 0.00 in
01:14 48.3 °F 45.2 °F 29.94 in SW 1.0 mph 3.0 mph 89% 0.00 in
01:19 48.3 °F 45.2 °F 29.95 in SW 1.0 mph 3.0 mph 89% 0.00 in
01:24 48.3 °F 45.2 °F 29.95 in SW 1.0 mph 3.0 mph 89% 0.00 in
01:29 48.3 °F 45.2 °F 29.95 in Calm   3.0 mph 89% 0.00 in
01:34 48.1 °F 45.0 °F 29.95 in Calm     89% 0.00 in
01:39 48.0 °F 44.9 °F 29.95 in Calm     89% 0.00 in
01:44 48.0 °F 44.9 °F 29.95 in Calm     89% 0.00 in
01:49 48.1 °F 45.0 °F 29.96 in Calm   2.0 mph 89% 0.00 in
01:54 48.2 °F 45.1 °F 29.96 in SW 1.0 mph 3.0 mph 89% 0.00 in
01:59 48.1 °F 45.0 °F 29.96 in SW 1.0 mph 3.0 mph 89% 0.00 in
02:04 48.2 °F 45.1 °F 29.96 in Calm     89% 0.00 in
02:09 48.2 °F 45.1 °F 29.95 in Calm     89% 0.00 in
02:14 48.1 °F 45.0 °F 29.95 in Calm     89% 0.00 in
02:19 48.0 °F 44.9 °F 29.95 in Calm     89% 0.00 in
02:24 47.9 °F 44.8 °F 29.95 in Calm     89% 0.00 in
02:29 47.9 °F 44.8 °F 29.95 in Calm     89% 0.00 in
02:34 48.0 °F 44.9 °F 29.95 in Calm     89% 0.00 in
02:39 48.0 °F 44.9 °F 29.96 in Calm     89% 0.00 in
02:44 48.0 °F 44.9 °F 29.96 in Calm     89% 0.00 in
02:49 48.0 °F 44.9 °F 29.96 in Calm     89% 0.00 in
02:54 48.0 °F 44.9 °F 29.96 in Calm     89% 0.00 in
02:59 48.1 °F 45.0 °F 29.96 in Calm     89% 0.00 in
03:04 48.0 °F 44.9 °F 29.96 in Calm     89% 0.00 in
03:09 48.0 °F 44.9 °F 29.96 in Calm     89% 0.00 in
03:14 48.0 °F 44.9 °F 29.96 in Calm     89% 0.00 in
03:19 48.1 °F 45.0 °F 29.96 in Calm     89% 0.00 in
03:24 48.3 °F 45.2 °F 29.96 in Calm     89% 0.00 in
03:29 48.4 °F 45.3 °F 29.96 in Calm     89% 0.00 in
03:34 48.6 °F 45.2 °F 29.97 in Calm     88% 0.00 in
03:39 48.5 °F 45.1 °F 29.97 in Calm     88% 0.00 in
03:44 48.5 °F 45.1 °F 29.97 in Calm   3.0 mph 88% 0.00 in
03:49 48.5 °F 44.8 °F 29.97 in SW 1.0 mph 3.0 mph 87% 0.00 in
03:54 48.4 °F 45.0 °F 29.97 in Calm   3.0 mph 88% 0.00 in
03:59 48.4 °F 45.0 °F 29.98 in Calm     88% 0.00 in
04:04 48.4 °F 44.7 °F 29.98 in Calm     87% 0.00 in
04:09 48.4 °F 44.7 °F 29.98 in Calm     87% 0.00 in
04:14 48.3 °F 44.6 °F 29.98 in SW 1.0 mph 5.0 mph 87% 0.00 in
04:19 48.3 °F 44.3 °F 29.98 in Calm   3.0 mph 86% 0.00 in
04:24 48.2 °F 44.2 °F 29.98 in Calm     86% 0.00 in
04:29 48.2 °F 43.9 °F 29.98 in Calm     85% 0.00 in
04:34 48.1 °F 43.8 °F 29.98 in Calm     85% 0.00 in
04:39 47.9 °F 43.3 °F 29.98 in Calm     84% 0.00 in
04:44 47.7 °F 43.4 °F 29.99 in Calm     85% 0.00 in
04:49 47.5 °F 43.2 °F 29.99 in Calm     85% 0.00 in
04:54 47.4 °F 42.8 °F 29.99 in Calm     84% 0.00 in
04:59 47.3 °F 42.7 °F 29.99 in Calm     84% 0.00 in
05:04 47.0 °F 42.1 °F 29.99 in Calm     83% 0.00 in
05:09 46.8 °F 41.9 °F 29.99 in Calm   3.0 mph 83% 0.00 in
05:14 47.0 °F 41.5 °F 29.99 in WSW 1.0 mph 3.0 mph 81% 0.00 in
05:19 47.2 °F 41.3 °F 29.99 in Calm   3.0 mph 80% 0.00 in
05:24 47.2 °F 41.0 °F 29.99 in Calm     79% 0.00 in
05:29 47.1 °F 40.9 °F 29.99 in Calm     79% 0.00 in
05:34 46.9 °F 40.4 °F 29.99 in Calm   5.0 mph 78% 0.00 in
05:39 46.8 °F 40.3 °F 29.99 in WSW 1.0 mph 5.0 mph 78% 0.00 in
05:44 46.9 °F 40.1 °F 30.00 in WSW 1.0 mph 2.0 mph 77% 0.00 in
05:49 46.7 °F 39.9 °F 30.00 in Calm   3.0 mph 77% 0.00 in
05:54 46.5 °F 39.3 °F 30.00 in Calm     76% 0.00 in
05:59 46.5 °F 39.3 °F 30.00 in Calm     76% 0.00 in
06:04 46.7 °F 39.2 °F 30.00 in WSW 1.0 mph 4.0 mph 75% 0.00 in
06:09 47.4 °F 38.5 °F 30.01 in West 2.0 mph 6.0 mph 71% 0.00 in
06:14 47.8 °F 38.1 °F 30.01 in West 3.0 mph 6.0 mph 69% 0.00 in
06:19 48.0 °F 38.3 °F 30.01 in West 2.0 mph 5.0 mph 69% 0.00 in
06:24 47.8 °F 38.1 °F 30.01 in WSW 4.0 mph 5.0 mph 69% 0.00 in
06:29 47.6 °F 38.3 °F 30.01 in WSW 3.0 mph 6.0 mph 70% 0.00 in
06:34 47.3 °F 38.4 °F 30.01 in WSW 3.0 mph 6.0 mph 71% 0.00 in
06:39 47.3 °F 38.7 °F 30.02 in WSW 3.0 mph 6.0 mph 72% 0.00 in
06:44 47.1 °F 38.5 °F 30.02 in WSW 3.0 mph 6.0 mph 72% 0.00 in
06:49 46.9 °F 38.3 °F 30.02 in WSW 3.0 mph 3.0 mph 72% 0.00 in
06:54 46.6 °F 38.4 °F 30.03 in WSW 1.0 mph 4.0 mph 73% 0.00 in
06:59 46.9 °F 38.3 °F 30.03 in Calm   5.0 mph 72% 0.00 in
07:04 47.1 °F 38.2 °F 30.04 in WSW 2.0 mph 5.0 mph 71% 0.00 in
07:09 47.0 °F 37.7 °F 30.04 in WSW 2.0 mph 5.0 mph 70% 0.00 in
07:14 47.3 °F 38.0 °F 30.05 in WSW 6.0 mph 6.0 mph 70% 0.00 in
07:19 47.5 °F 38.2 °F 30.05 in WSW 3.0 mph 7.0 mph 70% 0.00 in
07:24 47.6 °F 38.3 °F 30.06 in West 1.0 mph 7.0 mph 70% 0.00 in
07:29 47.7 °F 38.8 °F 30.06 in West 2.0 mph 6.0 mph 71% 0.00 in
07:34 47.9 °F 38.9 °F 30.06 in WSW 3.0 mph 9.0 mph 71% 0.00 in
07:39 48.5 °F 38.8 °F 30.06 in WSW 4.0 mph 9.0 mph 69% 0.00 in
07:44 48.9 °F 38.4 °F 30.06 in West 5.0 mph 8.0 mph 67% 0.00 in
07:49 49.3 °F 38.0 °F 30.06 in WNW 2.0 mph 10.0 mph 65% 0.00 in
07:54 49.6 °F 38.3 °F 30.06 in WNW 5.0 mph 10.0 mph 65% 0.00 in
07:59 49.8 °F 38.1 °F 30.07 in WNW 5.0 mph 10.0 mph 64% 0.00 in
08:04 50.0 °F 39.1 °F 30.07 in SW 4.0 mph 5.0 mph 66% 0.00 in
08:09 50.2 °F 39.7 °F 30.07 in WSW 4.0 mph 7.0 mph 67% 0.00 in
08:14 50.2 °F 39.3 °F 30.07 in West 2.0 mph 8.0 mph 66% 0.00 in
08:19 50.4 °F 39.1 °F 30.08 in West 5.0 mph 12.0 mph 65% 0.00 in
08:24 50.3 °F 38.6 °F 30.08 in West 9.0 mph 13.0 mph 64% 0.00 in
08:29 50.5 °F 38.4 °F 30.08 in NW 7.0 mph 11.0 mph 63% 0.00 in
08:34 50.8 °F 38.7 °F 30.08 in WNW 9.0 mph 11.0 mph 63% 0.00 in
08:39 51.1 °F 38.9 °F 30.08 in WNW 5.0 mph 11.0 mph 63% 0.00 in
08:44 51.2 °F 38.6 °F 30.08 in WNW 6.0 mph 11.0 mph 62% 0.00 in
08:49 51.7 °F 39.1 °F 30.08 in WNW 5.0 mph 11.0 mph 62% 0.00 in
08:54 52.1 °F 39.1 °F 30.09 in WNW 5.0 mph 10.0 mph 61% 0.00 in
08:59 52.1 °F 39.1 °F 30.09 in WNW 5.0 mph 10.0 mph 61% 0.00 in
09:04 52.1 °F 39.1 °F 30.09 in WNW 5.0 mph 10.0 mph 61% 0.00 in
09:09 52.1 °F 39.1 °F 30.09 in WNW 7.0 mph 12.0 mph 61% 0.00 in
09:14 51.8 °F 38.8 °F 30.09 in WNW 4.0 mph 12.0 mph 61% 0.00 in
09:19 52.2 °F 39.1 °F 30.09 in NNW 4.0 mph 12.0 mph 61% 0.00 in
09:24 52.2 °F 39.1 °F 30.09 in West 5.0 mph 9.0 mph 61% 0.00 in
09:29 52.4 °F 39.3 °F 30.09 in NW 7.0 mph 10.0 mph 61% 0.00 in
09:34 52.2 °F 38.7 °F 30.09 in West 3.0 mph 12.0 mph 60% 0.00 in
09:39 52.5 °F 39.4 °F 30.09 in WNW 2.0 mph 11.0 mph 61% 0.00 in
09:44 52.8 °F 38.9 °F 30.09 in WNW 5.0 mph 12.0 mph 59% 0.00 in
09:49 53.0 °F 39.5 °F 30.09 in WNW 6.0 mph 12.0 mph 60% 0.00 in
09:54 53.2 °F 39.2 °F 30.09 in WNW 6.0 mph 12.0 mph 59% 0.00 in
09:59 53.7 °F 39.3 °F 30.10 in WNW 5.0 mph 11.0 mph 58% 0.00 in
10:04 53.6 °F 39.6 °F 30.10 in NW 5.0 mph 9.0 mph 59% 0.00 in
10:09 53.8 °F 38.9 °F 30.10 in WNW 8.0 mph 9.0 mph 57% 0.00 in
10:14 53.9 °F 39.5 °F 30.10 in NW 5.0 mph 12.0 mph 58% 0.00 in
10:19 55.1 °F 40.1 °F 30.10 in WNW 5.0 mph 12.0 mph 57% 0.00 in
10:24 55.1 °F 40.1 °F 30.10 in WNW 5.0 mph 9.0 mph 57% 0.00 in
10:29 55.2 °F 39.8 °F 30.10 in West 7.0 mph 7.0 mph 56% 0.00 in
10:34 55.4 °F 40.4 °F 30.10 in WNW 6.0 mph 10.0 mph 57% 0.00 in
10:39 55.4 °F 41.3 °F 30.10 in WNW 4.0 mph 10.0 mph 59% 0.00 in
10:44 55.5 °F 40.0 °F 30.11 in NW 5.0 mph 10.0 mph 56% 0.00 in
10:49 56.2 °F 40.7 °F 30.11 in NNW 6.0 mph 9.0 mph 56% 0.00 in
10:54 56.5 °F 41.0 °F 30.11 in NW 5.0 mph 9.0 mph 56% 0.00 in
10:59 56.5 °F 39.6 °F 30.11 in NW 5.0 mph 12.0 mph 53% 0.00 in
11:04 56.2 °F 39.3 °F 30.11 in West 7.0 mph 13.0 mph 53% 0.00 in
11:09 56.5 °F 41.4 °F 30.11 in WNW 6.0 mph 13.0 mph 57% 0.00 in
11:14 56.3 °F 40.3 °F 30.11 in WNW 6.0 mph 14.0 mph 55% 0.00 in
11:19 57.5 °F 41.4 °F 30.12 in NW 6.0 mph 14.0 mph 55% 0.00 in
11:24 56.8 °F 39.8 °F 30.12 in NW 6.0 mph 14.0 mph 53% 0.00 in
11:29 56.8 °F 39.8 °F 30.12 in North 5.0 mph 15.0 mph 53% 0.00 in
11:34 56.6 °F 40.6 °F 30.12 in NW 6.0 mph 15.0 mph 55% 0.00 in
11:39 56.6 °F 39.7 °F 30.12 in WNW 8.0 mph 17.0 mph 53% 0.00 in
11:44 56.6 °F 40.1 °F 30.12 in NW 8.0 mph 17.0 mph 54% 0.00 in
11:49 56.9 °F 39.4 °F 30.12 in NW 10.0 mph 14.0 mph 52% 0.00 in
11:54 57.1 °F 40.1 °F 30.12 in WNW 7.0 mph 12.0 mph 53% 0.00 in
11:59 57.2 °F 40.7 °F 30.12 in NW 7.0 mph 14.0 mph 54% 0.00 in
12:04 57.9 °F 41.8 °F 30.13 in NW 7.0 mph 14.0 mph 55% 0.00 in
12:09 57.7 °F 40.2 °F 30.13 in NNW 6.0 mph 11.0 mph 52% 0.00 in
12:14 57.3 °F 41.3 °F 30.13 in WNW 6.0 mph 12.0 mph 55% 0.00 in
12:19 55.9 °F 41.8 °F 30.13 in SW 6.0 mph 11.0 mph 59% 0.00 in
12:24 56.3 °F 42.1 °F 30.13 in SW 11.0 mph 11.0 mph 59% 0.00 in
12:29 56.1 °F 41.5 °F 30.13 in West 6.0 mph 12.0 mph 58% 0.00 in
12:34 56.1 °F 41.1 °F 30.13 in West 6.0 mph 12.0 mph 57% 0.00 in
12:39 56.3 °F 43.0 °F 30.13 in WSW 5.0 mph 9.0 mph 61% 0.00 in
12:44 55.9 °F 41.3 °F 30.13 in West 3.0 mph 14.0 mph 58% 0.00 in
12:49 55.7 °F 41.6 °F 30.13 in West 3.0 mph 10.0 mph 59% 0.00 in
12:54 56.0 °F 41.4 °F 30.13 in SW 6.0 mph 15.0 mph 58% 0.00 in
12:59 56.6 °F 41.5 °F 30.13 in WSW 5.0 mph 15.0 mph 57% 0.00 in
13:04 56.0 °F 41.0 °F 30.13 in WSW 3.0 mph 13.0 mph 57% 0.00 in
13:09 55.1 °F 41.5 °F 30.13 in WSW 5.0 mph 13.0 mph 60% 0.00 in
13:14 54.7 °F 40.6 °F 30.13 in WSW 6.0 mph 12.0 mph 59% 0.00 in
13:19 54.6 °F 41.8 °F 30.13 in WSW 9.0 mph 13.0 mph 62% 0.00 in
13:24 54.6 °F 41.8 °F 30.14 in WSW 7.0 mph 13.0 mph 62% 0.00 in
13:29 54.5 °F 40.9 °F 30.14 in WSW 7.0 mph 14.0 mph 60% 0.00 in
13:34 54.5 °F 41.7 °F 30.14 in SW 12.0 mph 14.0 mph 62% 0.00 in
13:39 54.4 °F 41.6 °F 30.14 in SW 11.0 mph 15.0 mph 62% 0.00 in
13:44 54.4 °F 41.6 °F 30.14 in WSW 10.0 mph 14.0 mph 62% 0.00 in
13:49 54.7 °F 41.9 °F 30.14 in WSW 8.0 mph 14.0 mph 62% 0.00 in
13:54 54.3 °F 41.6 °F 30.13 in WSW 8.0 mph 17.0 mph 62% 0.00 in
13:59 54.7 °F 41.1 °F 30.14 in SW 8.0 mph 17.0 mph 60% 0.00 in
14:04 55.4 °F 42.6 °F 30.13 in SW 9.0 mph 15.0 mph 62% 0.00 in
14:09 55.4 °F 41.3 °F 30.14 in SW 8.0 mph 17.0 mph 59% 0.00 in
14:14 56.1 °F 43.7 °F 30.14 in WSW 7.0 mph 17.0 mph 63% 0.00 in
14:19 55.7 °F 42.0 °F 30.13 in South 5.0 mph 11.0 mph 60% 0.00 in
14:24 55.4 °F 42.2 °F 30.13 in West 12.0 mph 18.0 mph 61% 0.00 in
14:29 54.1 °F 41.4 °F 30.14 in SW 7.0 mph 19.0 mph 62% 0.00 in
14:34 55.2 °F 42.4 °F 30.13 in West 7.0 mph 15.0 mph 62% 0.00 in
14:39 54.7 °F 41.5 °F 30.14 in WSW 7.0 mph 15.0 mph 61% 0.00 in
14:44 54.9 °F 41.7 °F 30.14 in WSW 8.0 mph 17.0 mph 61% 0.00 in
14:49 54.0 °F 40.8 °F 30.14 in WSW 9.0 mph 18.0 mph 61% 0.00 in
14:54 54.0 °F 40.4 °F 30.14 in SSW 7.0 mph 16.0 mph 60% 0.00 in
14:59 53.7 °F 40.6 °F 30.14 in West 4.0 mph 14.0 mph 61% 0.00 in
15:04 54.8 °F 41.6 °F 30.14 in WSW 8.0 mph 14.0 mph 61% 0.00 in
15:09 55.4 °F 41.7 °F 30.13 in WSW 8.0 mph 14.0 mph 60% 0.00 in
15:14 55.2 °F 41.5 °F 30.14 in West 6.0 mph 16.0 mph 60% 0.00 in
15:19 55.7 °F 42.0 °F 30.14 in West 11.0 mph 13.0 mph 60% 0.00 in
15:24 55.3 °F 41.2 °F 30.14 in WSW 5.0 mph 17.0 mph 59% 0.00 in
15:29 54.9 °F 41.3 °F 30.14 in SSW 5.0 mph 15.0 mph 60% 0.00 in
15:34 55.3 °F 41.6 °F 30.14 in SW 7.0 mph 13.0 mph 60% 0.00 in
15:39 55.6 °F 41.9 °F 30.14 in WSW 15.0 mph 15.0 mph 60% 0.00 in
15:44 55.2 °F 41.1 °F 30.14 in WSW 9.0 mph 15.0 mph 59% 0.00 in
15:49 55.3 °F 41.2 °F 30.14 in WSW 12.0 mph 14.0 mph 59% 0.00 in
15:54 54.7 °F 40.6 °F 30.14 in SW 10.0 mph 16.0 mph 59% 0.00 in
15:59 55.1 °F 41.0 °F 30.14 in WSW 10.0 mph 16.0 mph 59% 0.00 in
16:04 55.3 °F 40.8 °F 30.14 in WSW 9.0 mph 15.0 mph 58% 0.00 in
16:09 55.3 °F 40.8 °F 30.14 in SW 11.0 mph 14.0 mph 58% 0.00 in
16:14 55.0 °F 40.9 °F 30.14 in WSW 14.0 mph 19.0 mph 59% 0.00 in
16:19 55.5 °F 41.4 °F 30.14 in WSW 9.0 mph 19.0 mph 59% 0.00 in
16:24 55.3 °F 40.8 °F 30.14 in SW 8.0 mph 16.0 mph 58% 0.00 in
16:29 55.4 °F 41.3 °F 30.14 in West 6.0 mph 15.0 mph 59% 0.00 in
16:34 55.3 °F 40.3 °F 30.14 in SW 11.0 mph 15.0 mph 57% 0.00 in
16:39 54.9 °F 40.4 °F 30.15 in South 5.0 mph 18.0 mph 58% 0.00 in
16:44 55.2 °F 40.7 °F 30.15 in WSW 8.0 mph 18.0 mph 58% 0.00 in
16:49 54.9 °F 40.8 °F 30.15 in WSW 8.0 mph 17.0 mph 59% 0.00 in
16:54 54.8 °F 40.7 °F 30.15 in WSW 8.0 mph 15.0 mph 59% 0.00 in
16:59 55.3 °F 40.8 °F 30.15 in WSW 7.0 mph 12.0 mph 58% 0.00 in
17:04 55.4 °F 40.4 °F 30.15 in SW 7.0 mph 15.0 mph 57% 0.00 in
17:09 54.4 °F 40.4 °F 30.15 in WSW 8.0 mph 15.0 mph 59% 0.00 in
17:14 54.6 °F 40.1 °F 30.15 in WSW 8.0 mph 15.0 mph 58% 0.00 in
17:19 54.6 °F 41.0 °F 30.15 in WSW 7.0 mph 14.0 mph 60% 0.00 in
17:24 55.1 °F 40.6 °F 30.15 in WSW 6.0 mph 13.0 mph 58% 0.00 in
17:29 54.7 °F 40.6 °F 30.15 in South 4.0 mph 13.0 mph 59% 0.00 in
17:34 54.6 °F 40.1 °F 30.15 in SW 7.0 mph 13.0 mph 58% 0.00 in
17:39 54.8 °F 41.2 °F 30.16 in West 8.0 mph 10.0 mph 60% 0.00 in
17:44 54.6 °F 40.6 °F 30.15 in SSW 3.0 mph 12.0 mph 59% 0.00 in
17:49 54.6 °F 41.0 °F 30.16 in WSW 6.0 mph 9.0 mph 60% 0.00 in
17:54 53.7 °F 40.1 °F 30.16 in West 6.0 mph 16.0 mph 60% 0.00 in
17:59 53.6 °F 40.5 °F 30.16 in SW 7.0 mph 12.0 mph 61% 0.00 in
18:04 53.5 °F 41.2 °F 30.16 in SW 7.0 mph 14.0 mph 63% 0.00 in
18:09 53.5 °F 40.8 °F 30.16 in SW 6.0 mph 14.0 mph 62% 0.00 in
18:14 53.2 °F 40.9 °F 30.16 in WNW 5.0 mph 12.0 mph 63% 0.00 in
18:19 52.6 °F 40.8 °F 30.16 in WSW 8.0 mph 12.0 mph 64% 0.00 in
18:24 52.7 °F 40.9 °F 30.16 in WSW 5.0 mph 11.0 mph 64% 0.00 in
18:29 52.6 °F 41.2 °F 30.16 in SW 6.0 mph 11.0 mph 65% 0.00 in
18:34 52.4 °F 41.0 °F 30.16 in SW 6.0 mph 11.0 mph 65% 0.00 in
18:39 52.1 °F 40.7 °F 30.17 in SW 6.0 mph 11.0 mph 65% 0.00 in
18:44 51.8 °F 40.8 °F 30.17 in SW 6.0 mph 11.0 mph 66% 0.00 in
18:49 51.7 °F 40.7 °F 30.17 in SW 6.0 mph 10.0 mph 66% 0.00 in
18:54 51.6 °F 40.6 °F 30.17 in SW 6.0 mph 10.0 mph 66% 0.00 in
18:59 51.7 °F 40.7 °F 30.17 in WSW 4.0 mph 9.0 mph 66% 0.00 in
19:04 51.6 °F 41.0 °F 30.17 in WSW 6.0 mph 10.0 mph 67% 0.00 in
19:09 51.2 °F 40.6 °F 30.18 in West 3.0 mph 10.0 mph 67% 0.00 in
19:14 51.0 °F 40.8 °F 30.18 in WSW 5.0 mph 7.0 mph 68% 0.00 in
19:19 51.0 °F 40.8 °F 30.18 in West 2.0 mph 6.0 mph 68% 0.00 in
19:24 50.8 °F 40.6 °F 30.18 in SW 2.0 mph 3.0 mph 68% 0.00 in
19:29 50.7 °F 40.5 °F 30.18 in SW 1.0 mph 3.0 mph 68% 0.00 in
19:34 50.6 °F 40.8 °F 30.18 in SW 1.0 mph 4.0 mph 69% 0.00 in
19:39 50.7 °F 40.9 °F 30.18 in SW 1.0 mph 4.0 mph 69% 0.00 in
19:44 50.6 °F 40.8 °F 30.18 in Calm   3.0 mph 69% 0.00 in
19:49 50.5 °F 40.7 °F 30.19 in SW 1.0 mph 3.0 mph 69% 0.00 in
19:54 50.4 °F 41.0 °F 30.19 in SW 1.0 mph 3.0 mph 70% 0.00 in
19:59 50.0 °F 40.6 °F 30.19 in SW 1.0 mph 3.0 mph 70% 0.00 in
20:04 49.6 °F 40.6 °F 30.19 in SSW 1.0 mph 3.0 mph 71% 0.00 in
20:09 49.5 °F 40.1 °F 30.19 in North 2.0 mph 6.0 mph 70% 0.00 in
20:14 49.7 °F 38.8 °F 30.19 in North 2.0 mph 5.0 mph 66% 0.00 in
20:19 49.7 °F 38.8 °F 30.20 in North 3.0 mph 4.0 mph 66% 0.00 in
20:24 49.6 °F 38.7 °F 30.20 in North 3.0 mph 7.0 mph 66% 0.00 in
20:29 49.3 °F 38.0 °F 30.20 in North 3.0 mph 7.0 mph 65% 0.00 in
20:34 49.0 °F 37.7 °F 30.21 in NNE 4.0 mph 6.0 mph 65% 0.00 in
20:39 48.7 °F 37.8 °F 30.21 in NNE 4.0 mph 5.0 mph 66% 0.00 in
20:44 48.2 °F 37.0 °F 30.22 in NNE 3.0 mph 7.0 mph 65% 0.00 in
20:49 47.8 °F 36.6 °F 30.22 in NNE 4.0 mph 7.0 mph 65% 0.00 in
20:54 47.5 °F 36.3 °F 30.23 in NNE 4.0 mph 7.0 mph 65% 0.00 in
20:59 47.2 °F 36.0 °F 30.23 in NNE 4.0 mph 8.0 mph 65% 0.00 in
21:04 46.9 °F 35.7 °F 30.23 in NNE 4.0 mph 8.0 mph 65% 0.00 in
21:09 46.6 °F 35.5 °F 30.24 in NNE 3.0 mph 5.0 mph 65% 0.00 in
21:14 46.3 °F 35.2 °F 30.24 in NNW 3.0 mph 7.0 mph 65% 0.00 in
21:19 46.0 °F 34.9 °F 30.24 in North 4.0 mph 8.0 mph 65% 0.00 in
21:24 45.6 °F 34.5 °F 30.25 in North 5.0 mph 9.0 mph 65% 0.00 in
21:29 45.3 °F 34.2 °F 30.25 in NNW 3.0 mph 8.0 mph 65% 0.00 in
21:34 44.8 °F 33.7 °F 30.25 in NNE 4.0 mph 7.0 mph 65% 0.00 in
21:39 44.6 °F 33.6 °F 30.26 in NNE 4.0 mph 7.0 mph 65% 0.00 in
21:44 44.2 °F 33.6 °F 30.25 in NNE 5.0 mph 7.0 mph 66% 0.00 in
21:49 44.0 °F 33.4 °F 30.26 in NNE 4.0 mph 7.0 mph 66% 0.00 in
21:54 43.9 °F 33.6 °F 30.26 in NNE 3.0 mph 6.0 mph 67% 0.00 in
21:59 43.7 °F 33.5 °F 30.26 in NNE 3.0 mph 8.0 mph 67% 0.00 in
22:04 43.4 °F 33.2 °F 30.27 in North 3.0 mph 10.0 mph 67% 0.00 in
22:09 43.3 °F 33.1 °F 30.27 in NNE 4.0 mph 10.0 mph 67% 0.00 in
22:14 43.0 °F 32.8 °F 30.27 in NNE 4.0 mph 8.0 mph 67% 0.00 in
22:19 42.8 °F 32.6 °F 30.27 in NNE 4.0 mph 10.0 mph 67% 0.00 in
22:24 42.6 °F 32.4 °F 30.27 in NNE 4.0 mph 10.0 mph 67% 0.00 in
22:29 42.4 °F 32.2 °F 30.27 in NNE 2.0 mph 9.0 mph 67% 0.00 in
22:34 42.2 °F 32.4 °F 30.28 in NNE 3.0 mph 7.0 mph 68% 0.00 in
22:39 42.0 °F 32.2 °F 30.27 in NNE 3.0 mph 7.0 mph 68% 0.00 in
22:44 41.8 °F 32.4 °F 30.27 in NE 2.0 mph 6.0 mph 69% 0.00 in
22:49 41.6 °F 32.2 °F 30.27 in NNE 3.0 mph 6.0 mph 69% 0.00 in
22:54 41.6 °F 32.2 °F 30.28 in NNE 2.0 mph 6.0 mph 69% 0.00 in
22:59 41.5 °F 32.1 °F 30.27 in NNE 3.0 mph 7.0 mph 69% 0.00 in
23:04 41.5 °F 32.1 °F 30.28 in NNE 3.0 mph 7.0 mph 69% 0.00 in
23:09 41.3 °F 32.2 °F 30.28 in North 3.0 mph 6.0 mph 70% 0.00 in
23:14 41.1 °F 32.1 °F 30.28 in NNE 3.0 mph 6.0 mph 70% 0.00 in
23:19 40.9 °F 32.2 °F 30.28 in NNE 3.0 mph 6.0 mph 71% 0.00 in
23:24 40.6 °F 32.3 °F 30.28 in NNE 2.0 mph 5.0 mph 72% 0.00 in
23:29 40.5 °F 32.2 °F 30.28 in Calm   4.0 mph 72% 0.00 in
23:34 40.3 °F 32.0 °F 30.28 in North 2.0 mph 5.0 mph 72% 0.00 in
23:39 40.2 °F 32.2 °F 30.29 in North 2.0 mph 5.0 mph 73% 0.00 in
23:49 40.0 °F 32.0 °F 30.29 in North 3.0 mph 5.0 mph 73% 0.00 in
23:54 40.0 °F 32.0 °F 30.29 in NNE 3.0 mph 7.0 mph 73% 0.00 in
23:59 39.9 °F 32.3 °F 30.29 in NNE 5.0 mph 7.0 mph 74% 0.00 in
Buffalo, New York, USA
Compliments of Weather Underground - 2.5 mb